createdAt,value
2023-02-27T00:00:14.837Z,100905.84
2023-02-27T00:06:59.038Z,100916.20
2023-02-27T00:12:05.173Z,100926.56
2023-02-27T00:17:10.761Z,100931.52
2023-02-27T00:22:44.078Z,100939.56
2023-02-27T00:28:01.705Z,100937.90
2023-02-27T00:33:15.636Z,100942.41
2023-02-27T00:38:42.538Z,100945.22
2023-02-27T00:43:54.977Z,100944.54
2023-02-27T00:49:01.388Z,100945.40
2023-02-27T00:54:09.831Z,100943.58
2023-02-27T00:59:21.803Z,100945.75
2023-02-27T01:04:35.532Z,100948.14
2023-02-27T01:10:04.939Z,100948.54
2023-02-27T01:16:14.466Z,100953.70
2023-02-27T01:22:04.973Z,100952.36
2023-02-27T01:27:08.757Z,100949.33
2023-02-27T01:32:13.737Z,100953.65
2023-02-27T01:37:37.482Z,100951.86
2023-02-27T01:43:34.544Z,100952.23
2023-02-27T01:49:02.091Z,100959.27
2023-02-27T01:54:27.060Z,100966.02
2023-02-27T01:59:42.586Z,100970.33
2023-02-27T02:04:50.525Z,100972.87
2023-02-27T02:10:04.899Z,100974.60
2023-02-27T02:15:17.181Z,100974.52
2023-02-27T02:21:24.456Z,100973.02
2023-02-27T02:27:22.307Z,100974.27
2023-02-27T02:33:41.242Z,100976.23
2023-02-27T02:38:56.814Z,100989.11
2023-02-27T02:44:07.204Z,100999.48
2023-02-27T02:49:53.254Z,101000.98
2023-02-27T02:55:22.581Z,101008.40
2023-02-27T03:00:31.845Z,101012.08
2023-02-27T03:05:47.117Z,101015.85
2023-02-27T03:10:58.346Z,101023.00
2023-02-27T03:16:24.824Z,101031.90
2023-02-27T03:21:36.591Z,101038.20
2023-02-27T03:27:09.548Z,101042.84
2023-02-27T03:32:50.434Z,101048.59
2023-02-27T03:38:50.772Z,101052.11
2023-02-27T03:44:20.239Z,101058.13
2023-02-27T03:49:27.962Z,101059.66
2023-02-27T03:54:50.458Z,101070.93
2023-02-27T03:59:57.054Z,101072.14
2023-02-27T04:05:00.309Z,101069.43
2023-02-27T04:11:49.665Z,101076.51
2023-02-27T04:17:48.818Z,101082.51
2023-02-27T04:23:34.580Z,101086.30
2023-02-27T04:28:47.209Z,101089.35
2023-02-27T04:34:11.043Z,101091.17
2023-02-27T04:39:44.831Z,101096.55
2023-02-27T04:44:54.960Z,101100.00
2023-02-27T04:50:08.044Z,101099.27
2023-02-27T04:55:20.423Z,101105.65
2023-02-27T05:00:32.230Z,101113.00
2023-02-27T05:05:40.232Z,101122.38
2023-02-27T05:11:01.858Z,101126.18
2023-02-27T05:17:03.662Z,101138.23
2023-02-27T05:22:33.533Z,101141.06
2023-02-27T05:28:03.231Z,101143.97
2023-02-27T05:34:13.285Z,101153.82
2023-02-27T05:39:41.410Z,101158.91
2023-02-27T05:46:05.572Z,101169.98
2023-02-27T05:51:38.955Z,101177.36
2023-02-27T05:56:52.319Z,101181.97
2023-02-27T06:01:55.972Z,101185.34
2023-02-27T06:07:14.905Z,101186.49
2023-02-27T06:12:21.434Z,101190.39
2023-02-27T06:17:45.061Z,101194.37
2023-02-27T06:22:48.478Z,101197.02
2023-02-27T06:27:51.661Z,101205.87
2023-02-27T06:33:06.161Z,101211.50
2023-02-27T06:38:09.519Z,101213.84
2023-02-27T06:43:34.905Z,101222.31
2023-02-27T06:48:38.235Z,101229.35
2023-02-27T06:53:54.155Z,101237.34
2023-02-27T06:58:59.484Z,101251.16
2023-02-27T07:04:02.892Z,101256.20
2023-02-27T07:09:20.644Z,101265.08
2023-02-27T07:14:34.953Z,101268.58
2023-02-27T07:19:41.443Z,101269.40
2023-02-27T07:25:16.621Z,101271.60
2023-02-27T07:30:22.900Z,101276.86
2023-02-27T07:35:26.514Z,101279.38
2023-02-27T07:40:29.927Z,101278.14
2023-02-27T07:45:43.284Z,101280.89
2023-02-27T07:50:49.286Z,101280.79
2023-02-27T07:55:53.176Z,101284.95
2023-02-27T08:01:16.910Z,101286.52
2023-02-27T08:06:40.950Z,101287.88
2023-02-27T08:11:44.339Z,101289.69
2023-02-27T08:16:50.156Z,101292.84
2023-02-27T08:21:53.335Z,101294.60
2023-02-27T08:26:57.448Z,101305.05
2023-02-27T08:32:02.596Z,101304.86
2023-02-27T08:37:26.034Z,101306.48
2023-02-27T08:42:51.732Z,101311.90
2023-02-27T08:47:55.142Z,101316.40
2023-02-27T08:53:00.893Z,101316.79
2023-02-27T08:58:36.006Z,101322.48
2023-02-27T09:04:08.886Z,101330.29
2023-02-27T09:10:01.094Z,101338.77
2023-02-27T09:15:09.055Z,101348.23
2023-02-27T09:20:19.111Z,101357.92
2023-02-27T09:25:33.329Z,101359.95
2023-02-27T09:31:32.950Z,101366.07
2023-02-27T09:37:12.793Z,101371.42
2023-02-27T09:42:54.212Z,101374.45
2023-02-27T09:48:18.211Z,101381.36
2023-02-27T09:53:50.687Z,101386.87
2023-02-27T09:59:17.189Z,101391.31
2023-02-27T10:04:43.459Z,101401.98
2023-02-27T10:10:14.305Z,101406.52
2023-02-27T10:15:31.236Z,101410.17
2023-02-27T10:20:42.850Z,101414.96
2023-02-27T10:25:49.983Z,101423.52
2023-02-27T10:30:59.936Z,101422.30
2023-02-27T10:37:14.900Z,101421.40
2023-02-27T10:42:18.767Z,101424.45
2023-02-27T10:47:24.970Z,101421.14
2023-02-27T10:52:28.450Z,101422.47
2023-02-27T10:57:39.786Z,101426.60
2023-02-27T11:02:52.112Z,101430.42
2023-02-27T11:08:10.653Z,101433.57
2023-02-27T11:13:40.217Z,101433.98
2023-02-27T11:18:52.520Z,101432.95
2023-02-27T11:24:32.832Z,101441.43
2023-02-27T11:30:39.668Z,101443.14
2023-02-27T11:36:07.230Z,101443.95
2023-02-27T11:41:11.188Z,101444.33
2023-02-27T11:46:48.525Z,101447.66
2023-02-27T11:52:16.309Z,101441.75
2023-02-27T11:57:32.731Z,101443.27
2023-02-27T12:02:46.753Z,101440.77
2023-02-27T12:08:22.461Z,101438.45
2023-02-27T12:13:30.282Z,101442.31
2023-02-27T12:18:43.731Z,101445.55
2023-02-27T12:24:32.948Z,101445.09
2023-02-27T12:29:41.669Z,101450.86
2023-02-27T12:35:06.023Z,101453.45
2023-02-27T12:40:36.468Z,101452.32
2023-02-27T12:46:38.094Z,101462.41
2023-02-27T12:52:39.136Z,101464.73
2023-02-27T12:58:13.206Z,101465.63
2023-02-27T13:03:26.696Z,101471.87
2023-02-27T13:08:50.993Z,101473.85
2023-02-27T13:14:13.110Z,101471.46
2023-02-27T13:20:29.650Z,101479.56
2023-02-27T13:26:35.774Z,101483.58
2023-02-27T13:32:43.221Z,101491.27
2023-02-27T13:38:28.673Z,101494.02
2023-02-27T13:43:51.746Z,101496.74
2023-02-27T13:49:29.823Z,101489.05
2023-02-27T13:54:59.902Z,101486.79
2023-02-27T14:00:31.740Z,101490.70
2023-02-27T14:05:43.220Z,101497.07
2023-02-27T14:11:00.469Z,101495.21
2023-02-27T14:16:19.940Z,101497.05
2023-02-27T14:22:39.231Z,101510.21
2023-02-27T14:28:10.982Z,101507.63
2023-02-27T14:33:42.452Z,101509.06
2023-02-27T14:38:58.357Z,101511.83
2023-02-27T14:44:02.153Z,101513.90
2023-02-27T14:49:20.944Z,101518.39
2023-02-27T14:54:26.457Z,101524.24
2023-02-27T14:59:48.724Z,101528.73
2023-02-27T15:06:04.103Z,101527.91
2023-02-27T15:11:15.444Z,101538.64
2023-02-27T15:16:24.816Z,101536.04
2023-02-27T15:21:33.993Z,101547.30
2023-02-27T15:26:48.220Z,101550.80
2023-02-27T15:32:03.920Z,101556.63
2023-02-27T15:37:07.552Z,101565.45
2023-02-27T15:42:49.944Z,101568.52
2023-02-27T15:47:53.586Z,101575.45
2023-02-27T15:53:17.155Z,101584.02
2023-02-27T15:59:08.590Z,101588.94
2023-02-27T16:04:39.540Z,101603.52
2023-02-27T16:10:11.047Z,101613.59
2023-02-27T16:15:31.464Z,101624.48
2023-02-27T16:21:14.720Z,101630.79
2023-02-27T16:27:09.879Z,101635.64
2023-02-27T16:32:44.848Z,101645.67
2023-02-27T16:37:53.642Z,101650.25
2023-02-27T16:43:03.902Z,101655.42
2023-02-27T16:48:26.205Z,101662.06
2023-02-27T16:54:30.176Z,101673.44
2023-02-27T17:00:02.709Z,101685.13
2023-02-27T17:05:49.481Z,101690.75
2023-02-27T17:11:05.585Z,101696.92
2023-02-27T17:16:19.007Z,101701.79
2023-02-27T17:21:43.271Z,101706.74
2023-02-27T17:27:01.009Z,101716.38
2023-02-27T17:32:34.873Z,101726.45
2023-02-27T17:37:50.781Z,101730.96
2023-02-27T17:43:53.702Z,101738.64
2023-02-27T17:49:18.400Z,101738.45
2023-02-27T17:54:44.690Z,101741.09
2023-02-27T18:00:41.714Z,101745.81
2023-02-27T18:06:21.699Z,101745.84
2023-02-27T18:11:25.238Z,101744.40
2023-02-27T18:16:38.851Z,101749.40
2023-02-27T18:21:58.706Z,101753.70
2023-02-27T18:27:02.493Z,101753.06
2023-02-27T18:32:15.844Z,101757.48
2023-02-27T18:37:29.580Z,101758.56
2023-02-27T18:42:59.071Z,101759.77
2023-02-27T18:48:32.998Z,101758.30
2023-02-27T18:53:41.445Z,101762.20
2023-02-27T18:59:48.596Z,101756.63
2023-02-27T19:05:45.583Z,101757.96
2023-02-27T19:10:58.295Z,101759.40
2023-02-27T19:16:22.221Z,101766.69
2023-02-27T19:21:26.870Z,101768.61
2023-02-27T19:26:43.935Z,101765.04
2023-02-27T19:31:52.656Z,101769.98
2023-02-27T19:37:12.470Z,101778.69
2023-02-27T19:42:18.340Z,101788.42
2023-02-27T19:48:24.948Z,101787.23
2023-02-27T19:53:48.974Z,101791.30
2023-02-27T19:58:55.239Z,101795.31
2023-02-27T20:05:13.116Z,101797.92
2023-02-27T20:11:17.453Z,101800.98
2023-02-27T20:16:35.617Z,101806.77
2023-02-27T20:21:49.440Z,101810.56
2023-02-27T20:27:03.099Z,101809.67
2023-02-27T20:32:39.430Z,101811.23
2023-02-27T20:38:31.089Z,101813.29
2023-02-27T20:43:40.067Z,101815.36
2023-02-27T20:48:56.794Z,101812.79
2023-02-27T20:54:23.575Z,101813.90
2023-02-27T20:59:50.352Z,101820.02
2023-02-27T21:05:14.528Z,101825.40
2023-02-27T21:11:28.897Z,101822.61
2023-02-27T21:17:29.702Z,101825.05
2023-02-27T21:23:43.797Z,101828.85
2023-02-27T21:29:25.379Z,101826.95
2023-02-27T21:35:22.096Z,101829.46
2023-02-27T21:41:18.537Z,101833.36
2023-02-27T21:46:21.997Z,101843.02
2023-02-27T21:51:38.762Z,101847.93
2023-02-27T21:56:46.930Z,101858.02
2023-02-27T22:02:14.959Z,101860.05
2023-02-27T22:07:21.862Z,101860.67
2023-02-27T22:12:25.197Z,101861.66
2023-02-27T22:17:28.427Z,101865.39
2023-02-27T22:23:02.008Z,101862.94
2023-02-27T22:28:07.915Z,101864.06
2023-02-27T22:33:54.147Z,101866.09
2023-02-27T22:39:10.444Z,101865.83
2023-02-27T22:44:17.022Z,101870.74
2023-02-27T22:49:23.588Z,101873.99
2023-02-27T22:55:27.725Z,101870.75
2023-02-27T23:00:54.609Z,101869.00
2023-02-27T23:06:43.094Z,101869.96
2023-02-27T23:11:56.158Z,101871.52
2023-02-27T23:17:08.454Z,101875.52
2023-02-27T23:22:14.716Z,101875.23
2023-02-27T23:27:41.145Z,101874.34
2023-02-27T23:33:20.947Z,101878.60
2023-02-27T23:38:28.445Z,101886.75
2023-02-27T23:43:42.110Z,101885.90
2023-02-27T23:48:48.721Z,101889.30
2023-02-27T23:54:02.248Z,101889.21
2023-02-27T23:59:11.014Z,101892.89
